TimeCDT,TemperatureF,Dew PointF,Humidity,Sea Level PressureIn,VisibilityMPH,Wind Direction,Wind SpeedMPH,Gust SpeedMPH,PrecipitationIn,Events,Conditions,WindDirDegrees,DateUTC
12:15 AM,77.5,77.2,99,30.06,7.0,SW,3.5,-,N/A,,Clear,230,2013-07-19 05:15:00
12:35 AM,77.5,76.8,98,30.06,7.0,WSW,3.5,-,N/A,,Clear,240,2013-07-19 05:35:00
12:55 AM,77.0,76.6,99,30.05,7.0,Calm,Calm,-,N/A,,Clear,0,2013-07-19 05:55:00
1:15 AM,76.5,76.1,99,30.05,7.0,Calm,Calm,-,N/A,,Clear,0,2013-07-19 06:15:00
1:35 AM,76.3,76.3,100,30.04,5.0,Calm,Calm,-,N/A,,Clear,0,2013-07-19 06:35:00
1:55 AM,76.1,76.1,100,30.04,5.0,Calm,Calm,-,N/A,,Clear,0,2013-07-19 06:55:00
2:15 AM,75.7,75.7,100,30.04,5.0,Calm,Calm,-,N/A,,Clear,0,2013-07-19 07:15:00
2:35 AM,74.5,74.5,100,30.04,4.0,Calm,Calm,-,N/A,,Clear,0,2013-07-19 07:35:00
2:55 AM,74.8,74.8,100,30.05,5.0,Calm,Calm,-,N/A,,Clear,0,2013-07-19 07:55:00
3:15 AM,73.6,73.6,100,30.04,3.0,Calm,Calm,-,N/A,,Clear,0,2013-07-19 08:15:00
3:35 AM,73.4,73.4,100,30.03,2.5,Calm,Calm,-,N/A,,Clear,0,2013-07-19 08:35:00
3:55 AM,73.4,73.4,100,30.04,2.5,Calm,Calm,-,N/A,,Clear,0,2013-07-19 08:55:00
4:15 AM,73.0,73.0,100,30.03,2.5,Calm,Calm,-,N/A,,Clear,0,2013-07-19 09:15:00
4:35 AM,72.7,72.7,100,30.03,2.0,Calm,Calm,-,N/A,,Clear,0,2013-07-19 09:35:00
4:55 AM,72.3,72.3,100,30.04,1.5,Calm,Calm,-,N/A,,Mist,0,2013-07-19 09:55:00
5:15 AM,72.3,72.3,100,30.04,1.0,Calm,Calm,-,N/A,,Mist,0,2013-07-19 10:15:00
5:35 AM,71.6,71.6,100,30.04,1.0,Calm,Calm,-,N/A,,Mist,0,2013-07-19 10:35:00
5:55 AM,71.4,71.4,100,30.04,1.2,Calm,Calm,-,N/A,,Mist,0,2013-07-19 10:55:00
6:15 AM,71.4,71.4,100,30.05,1.5,Calm,Calm,-,N/A,,Mist,0,2013-07-19 11:15:00
6:35 AM,71.6,71.6,100,30.06,1.0,Calm,Calm,-,N/A,,Mist,0,2013-07-19 11:35:00
6:55 AM,73.4,73.4,100,30.06,3.0,Calm,Calm,-,N/A,,Clear,0,2013-07-19 11:55:00
7:15 AM,74.7,74.7,100,30.06,5.0,Calm,Calm,-,N/A,,Clear,0,2013-07-19 12:15:00
7:35 AM,76.1,75.9,99,30.06,5.0,Calm,Calm,-,N/A,,Clear,0,2013-07-19 12:35:00
7:55 AM,77.2,73.8,89,30.06,7.0,SSW,4.6,-,N/A,,Clear,210,2013-07-19 12:55:00
8:15 AM,78.3,74.3,88,30.07,10.0,South,3.5,-,N/A,,Clear,190,2013-07-19 13:15:00
8:35 AM,79.9,74.3,83,30.07,10.0,South,4.6,-,N/A,,Clear,190,2013-07-19 13:35:00
8:55 AM,80.4,73.0,78,30.08,10.0,SW,5.8,-,N/A,,Clear,230,2013-07-19 13:55:00
9:15 AM,81.1,70.2,69,30.08,10.0,Calm,Calm,-,N/A,,Clear,0,2013-07-19 14:15:00
9:35 AM,81.7,70.7,69,30.07,10.0,West,4.6,-,N/A,,Clear,270,2013-07-19 14:35:00
9:55 AM,82.4,70.0,66,30.07,10.0,Calm,Calm,-,N/A,,Clear,0,2013-07-19 14:55:00
10:15 AM,82.9,70.7,66,30.07,10.0,SW,4.6,-,N/A,,Clear,220,2013-07-19 15:15:00
10:35 AM,83.8,70.7,64,30.07,10.0,SW,3.5,-,N/A,,Clear,230,2013-07-19 15:35:00
10:55 AM,84.9,70.2,61,30.06,10.0,WSW,5.8,-,N/A,,Clear,250,2013-07-19 15:55:00
11:15 AM,86.4,70.3,59,30.06,10.0,SW,6.9,-,N/A,,Clear,230,2013-07-19 16:15:00
11:35 AM,86.7,70.5,58,30.06,10.0,SW,8.1,-,N/A,,Clear,220,2013-07-19 16:35:00
11:55 AM,87.4,70.5,57,30.05,10.0,SSW,4.6,-,N/A,,Clear,210,2013-07-19 16:55:00
12:15 PM,87.1,70.3,57,30.05,10.0,SW,6.9,-,N/A,,Clear,220,2013-07-19 17:15:00
12:35 PM,87.8,70.9,57,30.04,10.0,SW,8.1,-,N/A,,Clear,230,2013-07-19 17:35:00
12:55 PM,88.0,70.7,56,30.03,10.0,SSW,8.1,-,N/A,,Clear,200,2013-07-19 17:55:00
1:15 PM,88.2,70.9,56,30.03,10.0,South,6.9,-,N/A,,Scattered Clouds,190,2013-07-19 18:15:00
1:35 PM,88.7,71.4,56,30.02,10.0,SSW,9.2,-,N/A,,Mostly Cloudy,200,2013-07-19 18:35:00
1:55 PM,88.7,71.4,56,30.02,10.0,South,5.8,-,N/A,,Scattered Clouds,190,2013-07-19 18:55:00
2:15 PM,90.0,70.9,53,30.01,10.0,SSW,9.2,-,N/A,,Clear,210,2013-07-19 19:15:00
2:35 PM,88.9,72.0,57,30.00,10.0,South,9.2,-,N/A,,Scattered Clouds,180,2013-07-19 19:35:00
2:55 PM,90.0,71.4,54,29.98,10.0,South,9.2,-,N/A,,Scattered Clouds,180,2013-07-19 19:55:00
3:15 PM,89.6,70.0,52,29.98,10.0,SW,8.1,-,N/A,,Scattered Clouds,230,2013-07-19 20:15:00
3:35 PM,90.0,70.0,52,29.97,10.0,WSW,9.2,-,N/A,,Scattered Clouds,240,2013-07-19 20:35:00
3:55 PM,90.1,70.0,51,29.96,10.0,SW,5.8,-,N/A,,Scattered Clouds,220,2013-07-19 20:55:00
4:15 PM,90.5,69.1,49,29.95,10.0,SW,5.8,-,N/A,,Clear,220,2013-07-19 21:15:00
4:35 PM,89.4,70.3,53,29.95,10.0,South,8.1,-,N/A,,Clear,190,2013-07-19 21:35:00
4:55 PM,89.8,70.5,53,29.95,10.0,SSW,4.6,-,N/A,,Scattered Clouds,210,2013-07-19 21:55:00
5:15 PM,88.9,70.7,55,29.94,10.0,South,6.9,-,N/A,,Mostly Cloudy,180,2013-07-19 22:15:00
5:35 PM,89.1,71.1,55,29.94,10.0,SW,5.8,-,N/A,,Mostly Cloudy,220,2013-07-19 22:35:00
5:55 PM,89.4,70.2,53,29.94,10.0,SW,6.9,-,N/A,,Scattered Clouds,220,2013-07-19 22:55:00
6:15 PM,88.7,70.3,54,29.94,10.0,SW,6.9,-,N/A,,Scattered Clouds,220,2013-07-19 23:15:00
6:35 PM,88.2,70.0,55,29.93,10.0,SW,5.8,-,N/A,,Clear,230,2013-07-19 23:35:00
6:55 PM,87.4,70.7,57,29.93,10.0,SSW,5.8,-,N/A,,Clear,210,2013-07-19 23:55:00
7:15 PM,86.9,71.6,60,29.94,10.0,SSW,4.6,-,N/A,,Clear,210,2013-07-20 00:15:00
7:35 PM,85.3,71.6,63,29.94,10.0,Calm,Calm,-,N/A,,Clear,0,2013-07-20 00:35:00
7:55 PM,84.7,71.6,65,29.94,10.0,SSW,3.5,-,N/A,,Clear,210,2013-07-20 00:55:00
8:15 PM,82.2,72.0,71,29.94,10.0,Calm,Calm,-,N/A,,Clear,0,2013-07-20 01:15:00
8:35 PM,81.1,72.0,74,29.95,10.0,Calm,Calm,-,N/A,,Clear,0,2013-07-20 01:35:00
8:55 PM,81.1,71.8,73,29.95,10.0,South,3.5,-,N/A,,Clear,190,2013-07-20 01:55:00
9:15 PM,79.9,71.6,76,29.95,10.0,South,4.6,-,N/A,,Clear,190,2013-07-20 02:15:00
9:35 PM,80.4,71.6,74,29.95,10.0,SSW,4.6,-,N/A,,Clear,200,2013-07-20 02:35:00
9:55 PM,80.6,71.6,74,29.96,10.0,SSW,3.5,-,N/A,,Clear,200,2013-07-20 02:55:00
10:15 PM,80.4,71.8,75,29.96,7.0,SSW,3.5,-,N/A,,Clear,200,2013-07-20 03:15:00
10:35 PM,80.1,71.8,76,29.95,10.0,South,4.6,-,N/A,,Clear,180,2013-07-20 03:35:00
10:55 PM,78.8,72.0,79,29.96,10.0,SSW,3.5,-,N/A,,Clear,200,2013-07-20 03:55:00
11:15 PM,78.8,72.0,79,29.96,10.0,South,4.6,-,N/A,,Clear,190,2013-07-20 04:15:00
11:35 PM,78.3,72.0,81,29.96,10.0,South,4.6,-,N/A,,Clear,190,2013-07-20 04:35:00
11:55 PM,78.1,71.8,81,29.96,10.0,SSW,3.5,-,N/A,,Clear,200,2013-07-20 04:55:00